KSLN/SLN METAR and TAF weather

Enter ICAO airport designator
Station Type Date Time Source
KSLN METAR 2019/12/08 03:53 UTC NOAA

KSLN 080353Z 18009KT 10SM CLR 06/M04 A2996 RMK AO2 SLP152 T00561039


Station Type Date Time Source
KSLN Decoded METAR 2019/12/08 03:53 UTC NOAA

SALINA MUNICIPAL AIRPORT, KS, United States (KSLN) 38-47N 97-39W 385M
Dec 07, 2019 - 10:53 PM EST / 2019.12.08 0353 UTC
Wind: from the S (180 degrees) at 10 MPH (9 KT):0
Visibility: 10 mile(s):0
Sky conditions: clear
Temperature: 42.1 F (5.6 C)
Dew Point: 25.0 F (-3.9 C)
Relative Humidity: 50%
Pressure (altimeter): 29.96 in. Hg (1014 hPa)
ob: KSLN 080353Z 18009KT 10SM CLR 06/M04 A2996 RMK AO2 SLP152 T00561039
cycle: 4

Station Type Date Time Source
KSLN TAF 2019/12/07 18:42 UTC NOAA

TAF KSLN 071740Z 0718/0818 19015G25KT P6SM FEW250
FM080200 17010KT P6SM SCT250 WS020/20040KT
FM080800 22008KT P6SM SCT250

Example: see airport list